sensor_id;sensor_type;location;lat;lon;timestamp;P1;durP1;ratioP1;P2;durP2;ratioP2
17790;SDS011;9019;48.132;-1.210;2023-06-10T00:01:44;25.98;;;20.70;;
17790;SDS011;9019;48.132;-1.210;2023-06-10T00:04:12;23.48;;;20.42;;
17790;SDS011;9019;48.132;-1.210;2023-06-10T00:06:39;24.05;;;19.95;;
17790;SDS011;9019;48.132;-1.210;2023-06-10T00:09:07;23.40;;;19.30;;
17790;SDS011;9019;48.132;-1.210;2023-06-10T00:11:36;23.67;;;19.55;;
17790;SDS011;9019;48.132;-1.210;2023-06-10T00:14:04;22.17;;;19.25;;
17790;SDS011;9019;48.132;-1.210;2023-06-10T00:16:31;23.83;;;19.98;;
17790;SDS011;9019;48.132;-1.210;2023-06-10T00:19:00;28.02;;;20.30;;
17790;SDS011;9019;48.132;-1.210;2023-06-10T00:21:28;21.90;;;19.55;;
17790;SDS011;9019;48.132;-1.210;2023-06-10T00:24:02;23.95;;;18.52;;
17790;SDS011;9019;48.132;-1.210;2023-06-10T00:26:30;22.05;;;19.20;;
17790;SDS011;9019;48.132;-1.210;2023-06-10T00:28:58;22.77;;;19.13;;
17790;SDS011;9019;48.132;-1.210;2023-06-10T00:31:25;23.15;;;19.20;;
17790;SDS011;9019;48.132;-1.210;2023-06-10T00:33:52;24.77;;;19.70;;
17790;SDS011;9019;48.132;-1.210;2023-06-10T00:36:21;25.85;;;19.33;;
17790;SDS011;9019;48.132;-1.210;2023-06-10T00:38:48;23.25;;;18.75;;
17790;SDS011;9019;48.132;-1.210;2023-06-10T00:41:15;22.98;;;18.65;;
17790;SDS011;9019;48.132;-1.210;2023-06-10T00:43:43;20.95;;;18.58;;
17790;SDS011;9019;48.132;-1.210;2023-06-10T00:46:10;23.80;;;19.73;;
17790;SDS011;9019;48.132;-1.210;2023-06-10T00:48:38;27.10;;;19.55;;
17790;SDS011;9019;48.132;-1.210;2023-06-10T00:51:06;29.58;;;20.23;;
17790;SDS011;9019;48.132;-1.210;2023-06-10T00:53:35;26.05;;;21.40;;
17790;SDS011;9019;48.132;-1.210;2023-06-10T00:56:03;29.00;;;19.58;;
17790;SDS011;9019;48.132;-1.210;2023-06-10T00:58:31;25.02;;;19.20;;
17790;SDS011;9019;48.132;-1.210;2023-06-10T01:00:58;26.42;;;20.95;;
17790;SDS011;9019;48.132;-1.210;2023-06-10T01:03:25;27.70;;;20.67;;
17790;SDS011;9019;48.132;-1.210;2023-06-10T01:05:53;23.23;;;19.48;;
17790;SDS011;9019;48.132;-1.210;2023-06-10T01:08:27;25.77;;;20.40;;
17790;SDS011;9019;48.132;-1.210;2023-06-10T01:10:57;27.65;;;20.42;;
17790;SDS011;9019;48.132;-1.210;2023-06-10T01:13:27;27.38;;;20.23;;
17790;SDS011;9019;48.132;-1.210;2023-06-10T01:15:55;26.08;;;19.63;;
17790;SDS011;9019;48.132;-1.210;2023-06-10T01:18:22;28.17;;;20.02;;
17790;SDS011;9019;48.132;-1.210;2023-06-10T01:20:50;27.83;;;20.85;;
17790;SDS011;9019;48.132;-1.210;2023-06-10T01:23:19;31.98;;;20.92;;
17790;SDS011;9019;48.132;-1.210;2023-06-10T01:25:49;27.85;;;20.20;;
17790;SDS011;9019;48.132;-1.210;2023-06-10T01:28:19;24.67;;;20.52;;
17790;SDS011;9019;48.132;-1.210;2023-06-10T01:30:49;30.05;;;21.48;;
17790;SDS011;9019;48.132;-1.210;2023-06-10T01:33:18;28.10;;;20.98;;
17790;SDS011;9019;48.132;-1.210;2023-06-10T01:35:48;29.88;;;21.73;;
17790;SDS011;9019;48.132;-1.210;2023-06-10T01:38:19;25.17;;;20.45;;
17790;SDS011;9019;48.132;-1.210;2023-06-10T01:40:49;25.55;;;20.83;;
17790;SDS011;9019;48.132;-1.210;2023-06-10T01:43:17;27.92;;;20.80;;
17790;SDS011;9019;48.132;-1.210;2023-06-10T01:45:44;28.13;;;20.90;;
17790;SDS011;9019;48.132;-1.210;2023-06-10T01:48:11;24.40;;;20.50;;
17790;SDS011;9019;48.132;-1.210;2023-06-10T01:50:39;23.38;;;20.42;;
17790;SDS011;9019;48.132;-1.210;2023-06-10T01:53:06;23.80;;;20.15;;
17790;SDS011;9019;48.132;-1.210;2023-06-10T01:55:34;26.02;;;21.45;;
17790;SDS011;9019;48.132;-1.210;2023-06-10T01:58:01;25.65;;;20.48;;
17790;SDS011;9019;48.132;-1.210;2023-06-10T02:00:29;24.85;;;20.00;;
17790;SDS011;9019;48.132;-1.210;2023-06-10T02:02:56;22.88;;;18.70;;
17790;SDS011;9019;48.132;-1.210;2023-06-10T02:05:23;28.52;;;21.00;;
17790;SDS011;9019;48.132;-1.210;2023-06-10T02:07:50;26.17;;;20.50;;
17790;SDS011;9019;48.132;-1.210;2023-06-10T02:10:17;26.90;;;20.08;;
17790;SDS011;9019;48.132;-1.210;2023-06-10T02:12:46;25.60;;;18.95;;
17790;SDS011;9019;48.132;-1.210;2023-06-10T02:15:13;22.95;;;19.42;;
17790;SDS011;9019;48.132;-1.210;2023-06-10T02:17:40;23.95;;;19.42;;
17790;SDS011;9019;48.132;-1.210;2023-06-10T02:20:08;28.13;;;20.00;;
17790;SDS011;9019;48.132;-1.210;2023-06-10T02:22:36;23.70;;;19.77;;
17790;SDS011;9019;48.132;-1.210;2023-06-10T02:25:03;30.77;;;19.50;;
17790;SDS011;9019;48.132;-1.210;2023-06-10T02:27:30;27.95;;;20.58;;
17790;SDS011;9019;48.132;-1.210;2023-06-10T02:29:59;25.23;;;20.15;;
17790;SDS011;9019;48.132;-1.210;2023-06-10T02:32:26;27.63;;;20.05;;
17790;SDS011;9019;48.132;-1.210;2023-06-10T02:34:54;24.73;;;20.05;;
17790;SDS011;9019;48.132;-1.210;2023-06-10T02:37:22;29.50;;;21.00;;
17790;SDS011;9019;48.132;-1.210;2023-06-10T02:39:49;27.77;;;21.42;;
17790;SDS011;9019;48.132;-1.210;2023-06-10T02:42:17;27.13;;;20.83;;
17790;SDS011;9019;48.132;-1.210;2023-06-10T02:44:44;26.52;;;20.90;;
17790;SDS011;9019;48.132;-1.210;2023-06-10T02:47:12;27.17;;;21.88;;
17790;SDS011;9019;48.132;-1.210;2023-06-10T02:49:40;24.80;;;20.95;;
17790;SDS011;9019;48.132;-1.210;2023-06-10T02:52:07;30.17;;;22.00;;
17790;SDS011;9019;48.132;-1.210;2023-06-10T02:54:36;28.40;;;21.63;;
17790;SDS011;9019;48.132;-1.210;2023-06-10T02:57:03;31.27;;;21.42;;
17790;SDS011;9019;48.132;-1.210;2023-06-10T02:59:31;30.17;;;22.38;;
17790;SDS011;9019;48.132;-1.210;2023-06-10T03:01:58;28.65;;;21.65;;
17790;SDS011;9019;48.132;-1.210;2023-06-10T03:04:27;27.58;;;21.58;;
17790;SDS011;9019;48.132;-1.210;2023-06-10T03:06:55;26.92;;;20.70;;
17790;SDS011;9019;48.132;-1.210;2023-06-10T03:09:23;29.33;;;21.45;;
17790;SDS011;9019;48.132;-1.210;2023-06-10T03:11:50;29.98;;;20.77;;
17790;SDS011;9019;48.132;-1.210;2023-06-10T03:14:17;22.88;;;19.38;;
17790;SDS011;9019;48.132;-1.210;2023-06-10T03:16:44;28.95;;;21.48;;
17790;SDS011;9019;48.132;-1.210;2023-06-10T03:19:11;33.38;;;21.50;;
17790;SDS011;9019;48.132;-1.210;2023-06-10T03:21:43;28.83;;;20.55;;
17790;SDS011;9019;48.132;-1.210;2023-06-10T03:24:10;29.65;;;21.13;;
17790;SDS011;9019;48.132;-1.210;2023-06-10T03:26:38;27.60;;;21.23;;
17790;SDS011;9019;48.132;-1.210;2023-06-10T03:29:05;24.30;;;20.73;;
17790;SDS011;9019;48.132;-1.210;2023-06-10T03:31:32;28.95;;;21.40;;
17790;SDS011;9019;48.132;-1.210;2023-06-10T03:34:00;27.50;;;20.63;;
17790;SDS011;9019;48.132;-1.210;2023-06-10T03:36:27;26.45;;;19.90;;
17790;SDS011;9019;48.132;-1.210;2023-06-10T03:38:56;27.05;;;20.90;;
17790;SDS011;9019;48.132;-1.210;2023-06-10T03:41:23;28.05;;;20.52;;
17790;SDS011;9019;48.132;-1.210;2023-06-10T03:43:51;28.70;;;21.10;;
17790;SDS011;9019;48.132;-1.210;2023-06-10T03:46:18;27.02;;;20.63;;
17790;SDS011;9019;48.132;-1.210;2023-06-10T03:48:45;28.02;;;21.25;;
17790;SDS011;9019;48.132;-1.210;2023-06-10T03:51:13;25.70;;;19.65;;
17790;SDS011;9019;48.132;-1.210;2023-06-10T03:53:40;31.52;;;21.05;;
17790;SDS011;9019;48.132;-1.210;2023-06-10T03:56:09;27.88;;;19.95;;
17790;SDS011;9019;48.132;-1.210;2023-06-10T03:58:36;24.25;;;20.50;;
17790;SDS011;9019;48.132;-1.210;2023-06-10T04:01:03;26.90;;;20.52;;
17790;SDS011;9019;48.132;-1.210;2023-06-10T04:03:32;25.60;;;21.05;;
17790;SDS011;9019;48.132;-1.210;2023-06-10T04:05:59;24.65;;;19.92;;
17790;SDS011;9019;48.132;-1.210;2023-06-10T04:08:26;25.92;;;20.48;;
17790;SDS011;9019;48.132;-1.210;2023-06-10T04:10:54;25.42;;;20.00;;
17790;SDS011;9019;48.132;-1.210;2023-06-10T04:13:23;25.58;;;19.92;;
17790;SDS011;9019;48.132;-1.210;2023-06-10T04:15:50;26.95;;;20.15;;
17790;SDS011;9019;48.132;-1.210;2023-06-10T04:18:17;25.88;;;20.65;;
17790;SDS011;9019;48.132;-1.210;2023-06-10T04:20:44;26.23;;;19.90;;
17790;SDS011;9019;48.132;-1.210;2023-06-10T04:23:11;29.85;;;20.67;;
17790;SDS011;9019;48.132;-1.210;2023-06-10T04:25:39;26.77;;;19.65;;
17790;SDS011;9019;48.132;-1.210;2023-06-10T04:28:06;29.75;;;20.20;;
17790;SDS011;9019;48.132;-1.210;2023-06-10T04:30:34;26.63;;;20.55;;
17790;SDS011;9019;48.132;-1.210;2023-06-10T04:33:01;24.08;;;20.60;;
17790;SDS011;9019;48.132;-1.210;2023-06-10T04:35:30;26.38;;;19.92;;
17790;SDS011;9019;48.132;-1.210;2023-06-10T04:37:58;29.02;;;21.27;;
17790;SDS011;9019;48.132;-1.210;2023-06-10T04:40:25;28.17;;;20.95;;
17790;SDS011;9019;48.132;-1.210;2023-06-10T04:42:52;28.20;;;20.27;;
17790;SDS011;9019;48.132;-1.210;2023-06-10T04:45:19;28.85;;;21.08;;
17790;SDS011;9019;48.132;-1.210;2023-06-10T04:47:48;34.95;;;21.70;;
17790;SDS011;9019;48.132;-1.210;2023-06-10T04:50:15;26.92;;;21.58;;
17790;SDS011;9019;48.132;-1.210;2023-06-10T04:52:42;29.40;;;21.23;;
17790;SDS011;9019;48.132;-1.210;2023-06-10T04:55:09;27.90;;;19.77;;
17790;SDS011;9019;48.132;-1.210;2023-06-10T04:57:36;27.25;;;20.45;;
17790;SDS011;9019;48.132;-1.210;2023-06-10T05:00:04;27.92;;;20.42;;
17790;SDS011;9019;48.132;-1.210;2023-06-10T05:02:31;27.35;;;20.13;;
17790;SDS011;9019;48.132;-1.210;2023-06-10T05:05:00;24.63;;;20.52;;
17790;SDS011;9019;48.132;-1.210;2023-06-10T05:07:27;26.45;;;20.25;;
17790;SDS011;9019;48.132;-1.210;2023-06-10T05:09:54;26.80;;;20.85;;
17790;SDS011;9019;48.132;-1.210;2023-06-10T05:12:22;27.13;;;20.27;;
17790;SDS011;9019;48.132;-1.210;2023-06-10T05:14:49;26.75;;;19.52;;
17790;SDS011;9019;48.132;-1.210;2023-06-10T05:17:16;23.65;;;19.70;;
17790;SDS011;9019;48.132;-1.210;2023-06-10T05:19:44;25.15;;;20.10;;
17790;SDS011;9019;48.132;-1.210;2023-06-10T05:22:13;26.20;;;21.20;;
17790;SDS011;9019;48.132;-1.210;2023-06-10T05:24:43;28.27;;;20.63;;
17790;SDS011;9019;48.132;-1.210;2023-06-10T05:27:10;24.88;;;20.80;;
17790;SDS011;9019;48.132;-1.210;2023-06-10T05:29:37;24.25;;;20.85;;
17790;SDS011;9019;48.132;-1.210;2023-06-10T05:32:05;26.63;;;20.98;;
17790;SDS011;9019;48.132;-1.210;2023-06-10T05:34:33;28.77;;;22.23;;
17790;SDS011;9019;48.132;-1.210;2023-06-10T05:37:00;36.03;;;23.95;;
17790;SDS011;9019;48.132;-1.210;2023-06-10T05:39:29;29.05;;;22.73;;
17790;SDS011;9019;48.132;-1.210;2023-06-10T05:41:57;29.33;;;22.70;;
17790;SDS011;9019;48.132;-1.210;2023-06-10T05:44:26;34.72;;;24.25;;
17790;SDS011;9019;48.132;-1.210;2023-06-10T05:46:53;32.60;;;23.67;;
17790;SDS011;9019;48.132;-1.210;2023-06-10T05:49:20;33.55;;;24.27;;
17790;SDS011;9019;48.132;-1.210;2023-06-10T05:51:47;30.95;;;23.77;;
17790;SDS011;9019;48.132;-1.210;2023-06-10T05:54:15;33.90;;;24.20;;
17790;SDS011;9019;48.132;-1.210;2023-06-10T05:56:43;33.40;;;24.83;;
17790;SDS011;9019;48.132;-1.210;2023-06-10T05:59:10;36.65;;;26.00;;
17790;SDS011;9019;48.132;-1.210;2023-06-10T06:01:37;35.17;;;25.15;;
17790;SDS011;9019;48.132;-1.210;2023-06-10T06:04:05;37.15;;;25.88;;
17790;SDS011;9019;48.132;-1.210;2023-06-10T06:06:32;32.95;;;25.27;;
17790;SDS011;9019;48.132;-1.210;2023-06-10T06:08:59;35.30;;;25.38;;
17790;SDS011;9019;48.132;-1.210;2023-06-10T06:11:26;31.50;;;25.75;;
17790;SDS011;9019;48.132;-1.210;2023-06-10T06:13:55;35.75;;;25.52;;
17790;SDS011;9019;48.132;-1.210;2023-06-10T06:16:22;32.85;;;24.65;;
17790;SDS011;9019;48.132;-1.210;2023-06-10T06:18:50;34.88;;;26.13;;
17790;SDS011;9019;48.132;-1.210;2023-06-10T06:21:17;35.55;;;25.63;;
17790;SDS011;9019;48.132;-1.210;2023-06-10T06:23:44;36.67;;;25.65;;
17790;SDS011;9019;48.132;-1.210;2023-06-10T06:26:11;33.70;;;25.65;;
17790;SDS011;9019;48.132;-1.210;2023-06-10T06:28:38;32.15;;;24.67;;
17790;SDS011;9019;48.132;-1.210;2023-06-10T06:31:07;35.00;;;24.35;;
17790;SDS011;9019;48.132;-1.210;2023-06-10T06:33:35;33.20;;;24.52;;
17790;SDS011;9019;48.132;-1.210;2023-06-10T06:36:02;33.88;;;25.15;;
17790;SDS011;9019;48.132;-1.210;2023-06-10T06:38:29;32.03;;;23.65;;
17790;SDS011;9019;48.132;-1.210;2023-06-10T06:40:56;31.85;;;25.00;;
17790;SDS011;9019;48.132;-1.210;2023-06-10T06:43:27;32.10;;;23.77;;
17790;SDS011;9019;48.132;-1.210;2023-06-10T06:45:55;35.30;;;25.30;;
17790;SDS011;9019;48.132;-1.210;2023-06-10T06:48:24;33.50;;;23.63;;
17790;SDS011;9019;48.132;-1.210;2023-06-10T06:50:51;31.23;;;23.40;;
17790;SDS011;9019;48.132;-1.210;2023-06-10T06:53:18;34.05;;;24.50;;
17790;SDS011;9019;48.132;-1.210;2023-06-10T06:55:45;29.80;;;25.08;;
17790;SDS011;9019;48.132;-1.210;2023-06-10T06:58:13;32.13;;;24.52;;
17790;SDS011;9019;48.132;-1.210;2023-06-10T07:00:40;29.85;;;23.90;;
17790;SDS011;9019;48.132;-1.210;2023-06-10T07:03:07;31.27;;;24.25;;
17790;SDS011;9019;48.132;-1.210;2023-06-10T07:05:36;31.63;;;24.60;;
17790;SDS011;9019;48.132;-1.210;2023-06-10T07:08:03;29.13;;;24.20;;
17790;SDS011;9019;48.132;-1.210;2023-06-10T07:10:31;29.30;;;22.85;;
17790;SDS011;9019;48.132;-1.210;2023-06-10T07:12:58;28.77;;;22.40;;
17790;SDS011;9019;48.132;-1.210;2023-06-10T07:15:25;28.42;;;22.63;;
17790;SDS011;9019;48.132;-1.210;2023-06-10T07:17:53;29.33;;;23.02;;
17790;SDS011;9019;48.132;-1.210;2023-06-10T07:20:20;28.90;;;24.17;;
17790;SDS011;9019;48.132;-1.210;2023-06-10T07:22:49;26.50;;;23.15;;
17790;SDS011;9019;48.132;-1.210;2023-06-10T07:25:16;32.25;;;22.83;;
17790;SDS011;9019;48.132;-1.210;2023-06-10T07:27:43;27.10;;;23.48;;
17790;SDS011;9019;48.132;-1.210;2023-06-10T07:30:11;28.30;;;23.48;;
17790;SDS011;9019;48.132;-1.210;2023-06-10T07:32:38;29.77;;;23.25;;
17790;SDS011;9019;48.132;-1.210;2023-06-10T07:35:07;28.52;;;24.23;;
17790;SDS011;9019;48.132;-1.210;2023-06-10T07:37:35;25.42;;;22.65;;
17790;SDS011;9019;48.132;-1.210;2023-06-10T07:40:04;27.42;;;23.67;;
17790;SDS011;9019;48.132;-1.210;2023-06-10T07:42:31;25.55;;;22.10;;
17790;SDS011;9019;48.132;-1.210;2023-06-10T07:44:59;30.23;;;23.25;;
17790;SDS011;9019;48.132;-1.210;2023-06-10T07:47:26;28.75;;;22.40;;
17790;SDS011;9019;48.132;-1.210;2023-06-10T07:49:53;28.73;;;23.17;;
17790;SDS011;9019;48.132;-1.210;2023-06-10T07:52:20;24.80;;;22.10;;
17790;SDS011;9019;48.132;-1.210;2023-06-10T07:54:48;25.92;;;22.48;;
17790;SDS011;9019;48.132;-1.210;2023-06-10T07:57:16;28.00;;;21.92;;
17790;SDS011;9019;48.132;-1.210;2023-06-10T07:59:43;25.48;;;22.27;;
17790;SDS011;9019;48.132;-1.210;2023-06-10T08:02:11;24.88;;;22.30;;
17790;SDS011;9019;48.132;-1.210;2023-06-10T08:04:38;26.05;;;22.73;;
17790;SDS011;9019;48.132;-1.210;2023-06-10T08:07:05;24.55;;;21.88;;
17790;SDS011;9019;48.132;-1.210;2023-06-10T08:09:33;27.73;;;24.30;;
17790;SDS011;9019;48.132;-1.210;2023-06-10T08:12:00;28.40;;;23.45;;
17790;SDS011;9019;48.132;-1.210;2023-06-10T08:14:28;23.92;;;21.50;;
17790;SDS011;9019;48.132;-1.210;2023-06-10T08:16:56;25.45;;;22.63;;
17790;SDS011;9019;48.132;-1.210;2023-06-10T08:19:23;24.92;;;22.33;;
17790;SDS011;9019;48.132;-1.210;2023-06-10T08:21:50;25.05;;;22.42;;
17790;SDS011;9019;48.132;-1.210;2023-06-10T08:24:17;25.08;;;21.10;;
17790;SDS011;9019;48.132;-1.210;2023-06-10T08:26:45;22.60;;;20.00;;
17790;SDS011;9019;48.132;-1.210;2023-06-10T08:29:12;23.15;;;20.73;;
17790;SDS011;9019;48.132;-1.210;2023-06-10T08:31:42;22.95;;;20.40;;
17790;SDS011;9019;48.132;-1.210;2023-06-10T08:34:09;22.10;;;19.70;;
17790;SDS011;9019;48.132;-1.210;2023-06-10T08:36:37;22.55;;;19.95;;
17790;SDS011;9019;48.132;-1.210;2023-06-10T08:39:04;21.42;;;19.30;;
17790;SDS011;9019;48.132;-1.210;2023-06-10T08:41:33;20.95;;;18.58;;
17790;SDS011;9019;48.132;-1.210;2023-06-10T08:44:03;28.05;;;25.08;;
17790;SDS011;9019;48.132;-1.210;2023-06-10T08:46:35;26.30;;;23.52;;
17790;SDS011;9019;48.132;-1.210;2023-06-10T08:49:05;23.35;;;20.85;;
17790;SDS011;9019;48.132;-1.210;2023-06-10T08:51:34;23.52;;;21.33;;
17790;SDS011;9019;48.132;-1.210;2023-06-10T08:54:04;23.30;;;21.08;;
17790;SDS011;9019;48.132;-1.210;2023-06-10T08:56:31;22.45;;;19.60;;
17790;SDS011;9019;48.132;-1.210;2023-06-10T08:59:01;22.30;;;19.33;;
17790;SDS011;9019;48.132;-1.210;2023-06-10T09:01:29;22.40;;;20.13;;
17790;SDS011;9019;48.132;-1.210;2023-06-10T09:03:56;22.50;;;20.23;;
17790;SDS011;9019;48.132;-1.210;2023-06-10T09:06:25;23.13;;;20.70;;
17790;SDS011;9019;48.132;-1.210;2023-06-10T09:08:53;21.23;;;19.13;;
17790;SDS011;9019;48.132;-1.210;2023-06-10T09:11:20;22.50;;;20.25;;
17790;SDS011;9019;48.132;-1.210;2023-06-10T09:13:47;21.42;;;19.33;;
17790;SDS011;9019;48.132;-1.210;2023-06-10T09:16:15;22.48;;;20.27;;
17790;SDS011;9019;48.132;-1.210;2023-06-10T09:18:42;22.85;;;20.48;;
17790;SDS011;9019;48.132;-1.210;2023-06-10T09:21:09;21.63;;;19.63;;
17790;SDS011;9019;48.132;-1.210;2023-06-10T09:23:38;22.05;;;19.77;;
17790;SDS011;9019;48.132;-1.210;2023-06-10T09:26:08;21.88;;;19.73;;
17790;SDS011;9019;48.132;-1.210;2023-06-10T09:28:35;21.83;;;19.70;;
17790;SDS011;9019;48.132;-1.210;2023-06-10T09:31:04;23.98;;;21.35;;
17790;SDS011;9019;48.132;-1.210;2023-06-10T09:33:32;24.08;;;21.20;;
17790;SDS011;9019;48.132;-1.210;2023-06-10T09:36:00;23.08;;;20.83;;
17790;SDS011;9019;48.132;-1.210;2023-06-10T09:38:29;22.20;;;19.90;;
17790;SDS011;9019;48.132;-1.210;2023-06-10T09:40:58;23.23;;;20.83;;
17790;SDS011;9019;48.132;-1.210;2023-06-10T09:43:38;23.77;;;21.23;;
17790;SDS011;9019;48.132;-1.210;2023-06-10T09:46:06;23.50;;;21.23;;
17790;SDS011;9019;48.132;-1.210;2023-06-10T09:48:34;24.23;;;21.50;;
17790;SDS011;9019;48.132;-1.210;2023-06-10T09:51:02;23.67;;;21.27;;
17790;SDS011;9019;48.132;-1.210;2023-06-10T09:53:35;21.73;;;19.60;;
17790;SDS011;9019;48.132;-1.210;2023-06-10T09:56:04;22.05;;;19.88;;
17790;SDS011;9019;48.132;-1.210;2023-06-10T09:58:34;22.02;;;19.92;;
17790;SDS011;9019;48.132;-1.210;2023-06-10T10:01:04;22.25;;;19.85;;
17790;SDS011;9019;48.132;-1.210;2023-06-10T10:03:32;23.40;;;20.95;;
17790;SDS011;9019;48.132;-1.210;2023-06-10T10:05:59;24.30;;;21.77;;
17790;SDS011;9019;48.132;-1.210;2023-06-10T10:08:27;22.58;;;20.27;;
17790;SDS011;9019;48.132;-1.210;2023-06-10T10:10:55;20.45;;;18.42;;
17790;SDS011;9019;48.132;-1.210;2023-06-10T10:13:25;21.02;;;18.95;;
17790;SDS011;9019;48.132;-1.210;2023-06-10T10:15:53;21.65;;;19.50;;
17790;SDS011;9019;48.132;-1.210;2023-06-10T10:18:22;21.27;;;19.23;;
17790;SDS011;9019;48.132;-1.210;2023-06-10T10:20:53;21.20;;;19.15;;
17790;SDS011;9019;48.132;-1.210;2023-06-10T10:23:27;19.60;;;17.52;;
17790;SDS011;9019;48.132;-1.210;2023-06-10T10:25:56;17.10;;;15.43;;
17790;SDS011;9019;48.132;-1.210;2023-06-10T10:28:26;18.02;;;16.35;;
17790;SDS011;9019;48.132;-1.210;2023-06-10T10:30:58;12.40;;;11.27;;
17790;SDS011;9019;48.132;-1.210;2023-06-10T10:33:28;15.32;;;13.95;;
17790;SDS011;9019;48.132;-1.210;2023-06-10T10:35:58;14.85;;;13.52;;
17790;SDS011;9019;48.132;-1.210;2023-06-10T10:38:25;12.85;;;11.75;;
17790;SDS011;9019;48.132;-1.210;2023-06-10T10:40:52;14.20;;;13.07;;
17790;SDS011;9019;48.132;-1.210;2023-06-10T10:43:21;13.98;;;12.68;;
17790;SDS011;9019;48.132;-1.210;2023-06-10T10:45:58;13.55;;;12.25;;
17790;SDS011;9019;48.132;-1.210;2023-06-10T10:48:26;10.63;;;9.73;;
17790;SDS011;9019;48.132;-1.210;2023-06-10T10:50:57;8.55;;;7.78;;
17790;SDS011;9019;48.132;-1.210;2023-06-10T10:53:24;10.07;;;9.20;;
17790;SDS011;9019;48.132;-1.210;2023-06-10T10:55:58;9.70;;;8.90;;
17790;SDS011;9019;48.132;-1.210;2023-06-10T10:58:27;9.10;;;8.20;;
17790;SDS011;9019;48.132;-1.210;2023-06-10T11:00:54;8.25;;;7.43;;
17790;SDS011;9019;48.132;-1.210;2023-06-10T11:03:22;6.88;;;6.03;;
17790;SDS011;9019;48.132;-1.210;2023-06-10T11:05:54;5.78;;;5.30;;
17790;SDS011;9019;48.132;-1.210;2023-06-10T11:11:17;5.35;;;4.85;;
17790;SDS011;9019;48.132;-1.210;2023-06-10T11:13:56;6.22;;;5.72;;
17790;SDS011;9019;48.132;-1.210;2023-06-10T11:16:25;6.63;;;5.97;;
17790;SDS011;9019;48.132;-1.210;2023-06-10T11:18:56;7.35;;;6.75;;
17790;SDS011;9019;48.132;-1.210;2023-06-10T11:21:24;6.38;;;5.82;;
17790;SDS011;9019;48.132;-1.210;2023-06-10T11:23:51;6.38;;;5.82;;
17790;SDS011;9019;48.132;-1.210;2023-06-10T11:26:20;8.93;;;7.88;;
17790;SDS011;9019;48.132;-1.210;2023-06-10T11:29:01;9.23;;;8.35;;
17790;SDS011;9019;48.132;-1.210;2023-06-10T11:31:29;9.00;;;8.20;;
17790;SDS011;9019;48.132;-1.210;2023-06-10T11:33:59;8.82;;;8.13;;
17790;SDS011;9019;48.132;-1.210;2023-06-10T11:36:27;7.95;;;7.15;;
17790;SDS011;9019;48.132;-1.210;2023-06-10T11:38:55;7.90;;;7.20;;
17790;SDS011;9019;48.132;-1.210;2023-06-10T11:41:23;9.82;;;8.88;;
17790;SDS011;9019;48.132;-1.210;2023-06-10T11:43:52;9.55;;;8.65;;
17790;SDS011;9019;48.132;-1.210;2023-06-10T11:46:20;9.05;;;7.57;;
17790;SDS011;9019;48.132;-1.210;2023-06-10T11:48:48;8.10;;;7.28;;
17790;SDS011;9019;48.132;-1.210;2023-06-10T11:51:17;7.75;;;7.03;;
17790;SDS011;9019;48.132;-1.210;2023-06-10T11:53:44;8.45;;;7.30;;
17790;SDS011;9019;48.132;-1.210;2023-06-10T11:56:12;8.27;;;7.47;;
17790;SDS011;9019;48.132;-1.210;2023-06-10T11:58:39;7.85;;;7.05;;
17790;SDS011;9019;48.132;-1.210;2023-06-10T12:01:09;7.07;;;6.47;;
17790;SDS011;9019;48.132;-1.210;2023-06-10T12:03:36;7.32;;;6.63;;
17790;SDS011;9019;48.132;-1.210;2023-06-10T12:06:04;7.68;;;6.95;;
17790;SDS011;9019;48.132;-1.210;2023-06-10T12:08:34;7.85;;;7.15;;
17790;SDS011;9019;48.132;-1.210;2023-06-10T12:11:08;6.70;;;6.10;;
17790;SDS011;9019;48.132;-1.210;2023-06-10T12:13:35;6.55;;;5.95;;
17790;SDS011;9019;48.132;-1.210;2023-06-10T12:16:06;7.00;;;6.28;;
17790;SDS011;9019;48.132;-1.210;2023-06-10T12:18:33;7.05;;;6.20;;
17790;SDS011;9019;48.132;-1.210;2023-06-10T12:21:01;6.22;;;5.72;;
17790;SDS011;9019;48.132;-1.210;2023-06-10T12:23:28;5.72;;;4.93;;
17790;SDS011;9019;48.132;-1.210;2023-06-10T12:25:57;6.68;;;6.07;;
17790;SDS011;9019;48.132;-1.210;2023-06-10T12:28:27;5.75;;;5.25;;
17790;SDS011;9019;48.132;-1.210;2023-06-10T12:31:05;5.88;;;5.38;;
17790;SDS011;9019;48.132;-1.210;2023-06-10T12:33:33;6.50;;;5.90;;
17790;SDS011;9019;48.132;-1.210;2023-06-10T12:36:00;6.00;;;5.50;;
17790;SDS011;9019;48.132;-1.210;2023-06-10T12:38:27;6.50;;;5.90;;
17790;SDS011;9019;48.132;-1.210;2023-06-10T12:41:02;6.43;;;5.70;;
17790;SDS011;9019;48.132;-1.210;2023-06-10T12:43:30;8.38;;;5.85;;
17790;SDS011;9019;48.132;-1.210;2023-06-10T12:46:07;6.68;;;6.07;;
17790;SDS011;9019;48.132;-1.210;2023-06-10T12:48:35;6.10;;;5.60;;
17790;SDS011;9019;48.132;-1.210;2023-06-10T12:51:02;6.22;;;5.72;;
17790;SDS011;9019;48.132;-1.210;2023-06-10T12:53:31;7.75;;;6.38;;
17790;SDS011;9019;48.132;-1.210;2023-06-10T12:55:58;7.05;;;6.35;;
17790;SDS011;9019;48.132;-1.210;2023-06-10T12:58:28;6.45;;;5.85;;
17790;SDS011;9019;48.132;-1.210;2023-06-10T13:00:55;6.43;;;5.82;;
17790;SDS011;9019;48.132;-1.210;2023-06-10T13:03:24;6.60;;;6.00;;
17790;SDS011;9019;48.132;-1.210;2023-06-10T13:05:51;7.40;;;6.70;;
17790;SDS011;9019;48.132;-1.210;2023-06-10T13:08:19;6.90;;;6.30;;
17790;SDS011;9019;48.132;-1.210;2023-06-10T13:10:46;6.93;;;6.22;;
17790;SDS011;9019;48.132;-1.210;2023-06-10T13:13:14;6.95;;;6.25;;
17790;SDS011;9019;48.132;-1.210;2023-06-10T13:15:42;8.05;;;6.57;;
17790;SDS011;9019;48.132;-1.210;2023-06-10T13:18:10;6.78;;;6.18;;
17790;SDS011;9019;48.132;-1.210;2023-06-10T13:20:37;7.43;;;6.82;;
17790;SDS011;9019;48.132;-1.210;2023-06-10T13:23:04;7.57;;;6.97;;
17790;SDS011;9019;48.132;-1.210;2023-06-10T13:25:32;7.78;;;7.10;;
17790;SDS011;9019;48.132;-1.210;2023-06-10T13:27:59;7.00;;;6.35;;
17790;SDS011;9019;48.132;-1.210;2023-06-10T13:30:26;7.13;;;6.43;;
17790;SDS011;9019;48.132;-1.210;2023-06-10T13:32:55;6.97;;;6.28;;
17790;SDS011;9019;48.132;-1.210;2023-06-10T13:35:22;8.05;;;6.72;;
17790;SDS011;9019;48.132;-1.210;2023-06-10T13:37:49;6.97;;;6.32;;
17790;SDS011;9019;48.132;-1.210;2023-06-10T13:40:16;5.75;;;5.25;;
17790;SDS011;9019;48.132;-1.210;2023-06-10T13:42:44;7.28;;;6.40;;
17790;SDS011;9019;48.132;-1.210;2023-06-10T13:45:15;6.90;;;6.30;;
17790;SDS011;9019;48.132;-1.210;2023-06-10T13:47:43;6.97;;;6.38;;
17790;SDS011;9019;48.132;-1.210;2023-06-10T13:50:12;6.20;;;5.70;;
17790;SDS011;9019;48.132;-1.210;2023-06-10T13:52:39;6.15;;;5.63;;
17790;SDS011;9019;48.132;-1.210;2023-06-10T13:55:06;8.15;;;7.25;;
17790;SDS011;9019;48.132;-1.210;2023-06-10T13:57:34;7.43;;;6.80;;
17790;SDS011;9019;48.132;-1.210;2023-06-10T14:00:01;6.50;;;6.00;;
17790;SDS011;9019;48.132;-1.210;2023-06-10T14:02:28;7.13;;;6.53;;
17790;SDS011;9019;48.132;-1.210;2023-06-10T14:04:55;6.65;;;6.05;;
17790;SDS011;9019;48.132;-1.210;2023-06-10T14:07:24;5.68;;;5.18;;
17790;SDS011;9019;48.132;-1.210;2023-06-10T14:09:52;5.72;;;5.32;;
17790;SDS011;9019;48.132;-1.210;2023-06-10T14:12:19;8.20;;;6.30;;
17790;SDS011;9019;48.132;-1.210;2023-06-10T14:14:47;6.82;;;6.13;;
17790;SDS011;9019;48.132;-1.210;2023-06-10T14:17:14;6.38;;;5.88;;
17790;SDS011;9019;48.132;-1.210;2023-06-10T14:19:41;6.88;;;6.28;;
17790;SDS011;9019;48.132;-1.210;2023-06-10T14:22:08;7.47;;;6.78;;
17790;SDS011;9019;48.132;-1.210;2023-06-10T14:24:37;6.93;;;6.30;;
17790;SDS011;9019;48.132;-1.210;2023-06-10T14:27:04;6.68;;;6.05;;
17790;SDS011;9019;48.132;-1.210;2023-06-10T14:29:32;7.03;;;6.43;;
17790;SDS011;9019;48.132;-1.210;2023-06-10T14:32:00;6.53;;;5.93;;
17790;SDS011;9019;48.132;-1.210;2023-06-10T14:34:27;7.78;;;5.88;;
17790;SDS011;9019;48.132;-1.210;2023-06-10T14:36:58;6.13;;;5.63;;